sensor_id;sensor_type;location;lat;lon;timestamp;P1;durP1;ratioP1;P2;durP2;ratioP2
75689;SDS011;64303;53.118;9.044;2023-05-07T00:01:04;17.15;;;12.38;;
75689;SDS011;64303;53.118;9.044;2023-05-07T00:03:31;16.17;;;12.07;;
75689;SDS011;64303;53.118;9.044;2023-05-07T00:06:00;19.13;;;12.68;;
75689;SDS011;64303;53.118;9.044;2023-05-07T00:08:26;18.42;;;12.15;;
75689;SDS011;64303;53.118;9.044;2023-05-07T00:10:53;17.88;;;12.02;;
75689;SDS011;64303;53.118;9.044;2023-05-07T00:13:19;14.90;;;11.38;;
75689;SDS011;64303;53.118;9.044;2023-05-07T00:15:46;18.45;;;10.77;;
75689;SDS011;64303;53.118;9.044;2023-05-07T00:18:13;18.20;;;12.02;;
75689;SDS011;64303;53.118;9.044;2023-05-07T00:20:40;19.75;;;13.98;;
75689;SDS011;64303;53.118;9.044;2023-05-07T00:23:08;17.73;;;13.27;;
75689;SDS011;64303;53.118;9.044;2023-05-07T00:25:35;16.40;;;13.48;;
75689;SDS011;64303;53.118;9.044;2023-05-07T00:28:01;15.75;;;13.02;;
75689;SDS011;64303;53.118;9.044;2023-05-07T00:30:29;17.80;;;13.23;;
75689;SDS011;64303;53.118;9.044;2023-05-07T00:32:55;18.60;;;15.95;;
75689;SDS011;64303;53.118;9.044;2023-05-07T00:35:22;19.15;;;12.27;;
75689;SDS011;64303;53.118;9.044;2023-05-07T00:37:49;18.08;;;12.95;;
75689;SDS011;64303;53.118;9.044;2023-05-07T00:40:17;18.23;;;12.27;;
75689;SDS011;64303;53.118;9.044;2023-05-07T00:42:43;17.13;;;14.93;;
75689;SDS011;64303;53.118;9.044;2023-05-07T00:45:12;19.42;;;11.77;;
75689;SDS011;64303;53.118;9.044;2023-05-07T00:47:39;18.20;;;12.98;;
75689;SDS011;64303;53.118;9.044;2023-05-07T00:50:06;18.38;;;12.63;;
75689;SDS011;64303;53.118;9.044;2023-05-07T00:52:35;14.00;;;11.88;;
75689;SDS011;64303;53.118;9.044;2023-05-07T00:55:04;17.80;;;12.23;;
75689;SDS011;64303;53.118;9.044;2023-05-07T00:57:33;20.70;;;13.98;;
75689;SDS011;64303;53.118;9.044;2023-05-07T01:00:03;17.02;;;13.48;;
75689;SDS011;64303;53.118;9.044;2023-05-07T01:02:31;15.18;;;12.77;;
75689;SDS011;64303;53.118;9.044;2023-05-07T01:04:58;15.80;;;12.52;;
75689;SDS011;64303;53.118;9.044;2023-05-07T01:07:24;14.93;;;11.20;;
75689;SDS011;64303;53.118;9.044;2023-05-07T01:09:51;16.30;;;12.55;;
75689;SDS011;64303;53.118;9.044;2023-05-07T01:12:18;16.30;;;11.35;;
75689;SDS011;64303;53.118;9.044;2023-05-07T01:14:47;17.50;;;12.45;;
75689;SDS011;64303;53.118;9.044;2023-05-07T01:17:15;19.10;;;12.90;;
75689;SDS011;64303;53.118;9.044;2023-05-07T01:19:41;16.35;;;12.70;;
75689;SDS011;64303;53.118;9.044;2023-05-07T01:22:09;18.20;;;13.15;;
75689;SDS011;64303;53.118;9.044;2023-05-07T01:24:48;19.85;;;12.50;;
75689;SDS011;64303;53.118;9.044;2023-05-07T01:27:16;16.17;;;11.82;;
75689;SDS011;64303;53.118;9.044;2023-05-07T01:29:42;16.63;;;14.20;;
75689;SDS011;64303;53.118;9.044;2023-05-07T01:32:09;15.27;;;11.35;;
75689;SDS011;64303;53.118;9.044;2023-05-07T01:34:36;17.83;;;11.07;;
75689;SDS011;64303;53.118;9.044;2023-05-07T01:37:04;17.58;;;12.10;;
75689;SDS011;64303;53.118;9.044;2023-05-07T01:39:31;20.42;;;13.95;;
75689;SDS011;64303;53.118;9.044;2023-05-07T01:41:59;15.25;;;11.32;;
75689;SDS011;64303;53.118;9.044;2023-05-07T01:44:27;18.13;;;12.50;;
75689;SDS011;64303;53.118;9.044;2023-05-07T01:46:54;15.70;;;11.52;;
75689;SDS011;64303;53.118;9.044;2023-05-07T01:49:21;15.45;;;11.95;;
75689;SDS011;64303;53.118;9.044;2023-05-07T01:51:47;15.55;;;12.57;;
75689;SDS011;64303;53.118;9.044;2023-05-07T01:54:15;14.70;;;10.50;;
75689;SDS011;64303;53.118;9.044;2023-05-07T01:56:41;15.85;;;12.05;;
75689;SDS011;64303;53.118;9.044;2023-05-07T01:59:10;16.63;;;11.50;;
75689;SDS011;64303;53.118;9.044;2023-05-07T02:01:36;15.88;;;11.65;;
75689;SDS011;64303;53.118;9.044;2023-05-07T02:04:03;21.30;;;14.45;;
75689;SDS011;64303;53.118;9.044;2023-05-07T02:06:30;18.02;;;12.65;;
75689;SDS011;64303;53.118;9.044;2023-05-07T02:09:02;15.85;;;10.70;;
75689;SDS011;64303;53.118;9.044;2023-05-07T02:11:29;18.58;;;13.02;;
75689;SDS011;64303;53.118;9.044;2023-05-07T02:13:55;17.23;;;10.95;;
75689;SDS011;64303;53.118;9.044;2023-05-07T02:16:24;15.05;;;10.35;;
75689;SDS011;64303;53.118;9.044;2023-05-07T02:18:51;15.73;;;10.30;;
75689;SDS011;64303;53.118;9.044;2023-05-07T02:21:18;14.70;;;10.75;;
75689;SDS011;64303;53.118;9.044;2023-05-07T02:23:45;14.38;;;10.45;;
75689;SDS011;64303;53.118;9.044;2023-05-07T02:26:11;17.23;;;10.02;;
75689;SDS011;64303;53.118;9.044;2023-05-07T02:28:38;16.80;;;10.77;;
75689;SDS011;64303;53.118;9.044;2023-05-07T02:31:05;19.83;;;13.45;;
75689;SDS011;64303;53.118;9.044;2023-05-07T02:33:34;15.52;;;11.35;;
75689;SDS011;64303;53.118;9.044;2023-05-07T02:36:07;17.25;;;10.88;;
75689;SDS011;64303;53.118;9.044;2023-05-07T02:38:38;16.48;;;11.90;;
75689;SDS011;64303;53.118;9.044;2023-05-07T02:41:05;18.25;;;10.88;;
75689;SDS011;64303;53.118;9.044;2023-05-07T02:43:32;16.98;;;15.23;;
75689;SDS011;64303;53.118;9.044;2023-05-07T02:46:02;16.17;;;12.18;;
75689;SDS011;64303;53.118;9.044;2023-05-07T02:48:29;15.32;;;10.20;;
75689;SDS011;64303;53.118;9.044;2023-05-07T02:50:57;12.68;;;9.27;;
75689;SDS011;64303;53.118;9.044;2023-05-07T02:53:25;15.45;;;10.07;;
75689;SDS011;64303;53.118;9.044;2023-05-07T02:55:52;16.63;;;12.15;;
75689;SDS011;64303;53.118;9.044;2023-05-07T02:58:19;15.40;;;10.57;;
75689;SDS011;64303;53.118;9.044;2023-05-07T03:00:46;14.77;;;9.63;;
75689;SDS011;64303;53.118;9.044;2023-05-07T03:03:27;16.48;;;11.95;;
75689;SDS011;64303;53.118;9.044;2023-05-07T03:05:54;14.00;;;10.50;;
75689;SDS011;64303;53.118;9.044;2023-05-07T03:08:22;16.30;;;11.02;;
75689;SDS011;64303;53.118;9.044;2023-05-07T03:10:49;14.52;;;11.82;;
75689;SDS011;64303;53.118;9.044;2023-05-07T03:13:16;14.98;;;9.43;;
75689;SDS011;64303;53.118;9.044;2023-05-07T03:15:43;13.15;;;10.50;;
75689;SDS011;64303;53.118;9.044;2023-05-07T03:18:09;14.07;;;9.57;;
75689;SDS011;64303;53.118;9.044;2023-05-07T03:20:37;14.00;;;10.05;;
75689;SDS011;64303;53.118;9.044;2023-05-07T03:23:03;13.93;;;10.15;;
75689;SDS011;64303;53.118;9.044;2023-05-07T03:25:31;16.58;;;10.38;;
75689;SDS011;64303;53.118;9.044;2023-05-07T03:27:58;16.50;;;11.05;;
75689;SDS011;64303;53.118;9.044;2023-05-07T03:30:33;15.88;;;11.18;;
75689;SDS011;64303;53.118;9.044;2023-05-07T03:33:00;14.77;;;10.80;;
75689;SDS011;64303;53.118;9.044;2023-05-07T03:35:27;14.48;;;10.15;;
75689;SDS011;64303;53.118;9.044;2023-05-07T03:37:54;17.17;;;10.50;;
75689;SDS011;64303;53.118;9.044;2023-05-07T03:40:21;13.88;;;10.95;;
75689;SDS011;64303;53.118;9.044;2023-05-07T03:42:53;14.65;;;10.40;;
75689;SDS011;64303;53.118;9.044;2023-05-07T03:45:23;13.55;;;9.52;;
75689;SDS011;64303;53.118;9.044;2023-05-07T03:47:59;13.57;;;9.30;;
75689;SDS011;64303;53.118;9.044;2023-05-07T03:50:26;14.02;;;9.25;;
75689;SDS011;64303;53.118;9.044;2023-05-07T03:52:53;14.00;;;10.10;;
75689;SDS011;64303;53.118;9.044;2023-05-07T03:55:21;16.13;;;10.35;;
75689;SDS011;64303;53.118;9.044;2023-05-07T03:57:54;15.70;;;10.60;;
75689;SDS011;64303;53.118;9.044;2023-05-07T04:00:23;14.30;;;10.10;;
75689;SDS011;64303;53.118;9.044;2023-05-07T04:02:49;12.30;;;8.75;;
75689;SDS011;64303;53.118;9.044;2023-05-07T04:05:23;13.93;;;11.18;;
75689;SDS011;64303;53.118;9.044;2023-05-07T04:07:54;12.48;;;9.65;;
75689;SDS011;64303;53.118;9.044;2023-05-07T04:10:29;13.00;;;9.15;;
75689;SDS011;64303;53.118;9.044;2023-05-07T04:12:58;13.35;;;8.40;;
75689;SDS011;64303;53.118;9.044;2023-05-07T04:15:26;10.55;;;7.47;;
75689;SDS011;64303;53.118;9.044;2023-05-07T04:17:54;13.93;;;9.57;;
75689;SDS011;64303;53.118;9.044;2023-05-07T04:20:22;12.43;;;9.82;;
75689;SDS011;64303;53.118;9.044;2023-05-07T04:22:56;14.43;;;10.93;;
75689;SDS011;64303;53.118;9.044;2023-05-07T04:25:23;15.25;;;10.57;;
75689;SDS011;64303;53.118;9.044;2023-05-07T04:27:53;13.07;;;8.93;;
75689;SDS011;64303;53.118;9.044;2023-05-07T04:30:22;14.10;;;11.35;;
75689;SDS011;64303;53.118;9.044;2023-05-07T04:35:15;11.13;;;8.15;;
75689;SDS011;64303;53.118;9.044;2023-05-07T04:37:42;12.20;;;8.88;;
75689;SDS011;64303;53.118;9.044;2023-05-07T04:40:09;15.77;;;10.90;;
75689;SDS011;64303;53.118;9.044;2023-05-07T04:42:36;11.40;;;9.43;;
75689;SDS011;64303;53.118;9.044;2023-05-07T04:45:03;12.57;;;10.00;;
75689;SDS011;64303;53.118;9.044;2023-05-07T04:47:34;12.35;;;9.50;;
75689;SDS011;64303;53.118;9.044;2023-05-07T04:50:02;14.48;;;10.48;;
75689;SDS011;64303;53.118;9.044;2023-05-07T04:52:29;13.88;;;10.38;;
75689;SDS011;64303;53.118;9.044;2023-05-07T04:54:58;15.65;;;11.07;;
75689;SDS011;64303;53.118;9.044;2023-05-07T04:57:26;12.15;;;9.25;;
75689;SDS011;64303;53.118;9.044;2023-05-07T04:59:53;12.57;;;9.30;;
75689;SDS011;64303;53.118;9.044;2023-05-07T05:02:20;14.18;;;10.55;;
75689;SDS011;64303;53.118;9.044;2023-05-07T05:04:48;13.88;;;11.40;;
75689;SDS011;64303;53.118;9.044;2023-05-07T05:07:15;11.00;;;8.73;;
75689;SDS011;64303;53.118;9.044;2023-05-07T05:09:42;12.70;;;8.80;;
75689;SDS011;64303;53.118;9.044;2023-05-07T05:12:09;12.32;;;8.57;;
75689;SDS011;64303;53.118;9.044;2023-05-07T05:14:37;10.18;;;7.65;;
75689;SDS011;64303;53.118;9.044;2023-05-07T05:17:04;10.73;;;8.48;;
75689;SDS011;64303;53.118;9.044;2023-05-07T05:19:31;10.00;;;8.25;;
75689;SDS011;64303;53.118;9.044;2023-05-07T05:21:59;11.77;;;8.48;;
75689;SDS011;64303;53.118;9.044;2023-05-07T05:24:29;10.23;;;8.15;;
75689;SDS011;64303;53.118;9.044;2023-05-07T05:26:56;10.95;;;8.88;;
75689;SDS011;64303;53.118;9.044;2023-05-07T05:29:23;11.45;;;9.48;;
75689;SDS011;64303;53.118;9.044;2023-05-07T05:31:50;10.20;;;7.63;;
75689;SDS011;64303;53.118;9.044;2023-05-07T05:34:17;10.15;;;9.15;;
75689;SDS011;64303;53.118;9.044;2023-05-07T05:36:45;8.48;;;7.32;;
75689;SDS011;64303;53.118;9.044;2023-05-07T05:39:14;8.77;;;7.45;;
75689;SDS011;64303;53.118;9.044;2023-05-07T05:41:42;8.68;;;7.78;;
75689;SDS011;64303;53.118;9.044;2023-05-07T05:44:08;8.13;;;6.82;;
75689;SDS011;64303;53.118;9.044;2023-05-07T05:46:35;10.52;;;8.65;;
75689;SDS011;64303;53.118;9.044;2023-05-07T05:49:02;8.02;;;6.28;;
75689;SDS011;64303;53.118;9.044;2023-05-07T05:53:57;9.10;;;8.10;;
75689;SDS011;64303;53.118;9.044;2023-05-07T05:56:25;10.18;;;6.88;;
75689;SDS011;64303;53.118;9.044;2023-05-07T05:58:52;9.13;;;6.93;;
75689;SDS011;64303;53.118;9.044;2023-05-07T06:01:18;9.60;;;6.97;;
75689;SDS011;64303;53.118;9.044;2023-05-07T06:03:47;9.55;;;8.65;;
75689;SDS011;64303;53.118;9.044;2023-05-07T06:06:15;8.70;;;7.55;;
75689;SDS011;64303;53.118;9.044;2023-05-07T06:08:43;10.10;;;7.55;;
75689;SDS011;64303;53.118;9.044;2023-05-07T06:11:12;7.78;;;6.95;;
75689;SDS011;64303;53.118;9.044;2023-05-07T06:13:42;8.07;;;7.25;;
75689;SDS011;64303;53.118;9.044;2023-05-07T06:18:36;8.27;;;6.78;;
75689;SDS011;64303;53.118;9.044;2023-05-07T06:21:03;9.25;;;8.35;;
75689;SDS011;64303;53.118;9.044;2023-05-07T06:23:32;8.65;;;6.93;;
75689;SDS011;64303;53.118;9.044;2023-05-07T06:26:00;10.10;;;7.88;;
75689;SDS011;64303;53.118;9.044;2023-05-07T06:28:32;8.65;;;5.22;;
75689;SDS011;64303;53.118;9.044;2023-05-07T06:31:13;8.10;;;6.95;;
75689;SDS011;64303;53.118;9.044;2023-05-07T06:33:44;6.63;;;5.32;;
75689;SDS011;64303;53.118;9.044;2023-05-07T06:36:11;6.80;;;5.57;;
75689;SDS011;64303;53.118;9.044;2023-05-07T06:38:38;7.78;;;6.22;;
75689;SDS011;64303;53.118;9.044;2023-05-07T06:41:05;6.63;;;5.93;;
75689;SDS011;64303;53.118;9.044;2023-05-07T06:43:32;9.02;;;6.63;;
75689;SDS011;64303;53.118;9.044;2023-05-07T06:46:21;7.97;;;7.10;;
75689;SDS011;64303;53.118;9.044;2023-05-07T06:51:14;7.80;;;7.00;;
75689;SDS011;64303;53.118;9.044;2023-05-07T06:53:40;8.75;;;7.72;;
75689;SDS011;64303;53.118;9.044;2023-05-07T06:56:10;7.65;;;6.82;;
75689;SDS011;64303;53.118;9.044;2023-05-07T06:58:38;7.38;;;6.65;;
75689;SDS011;64303;53.118;9.044;2023-05-07T07:01:05;8.95;;;7.95;;
75689;SDS011;64303;53.118;9.044;2023-05-07T07:03:34;8.30;;;6.68;;
75689;SDS011;64303;53.118;9.044;2023-05-07T07:08:29;7.35;;;5.97;;
75689;SDS011;64303;53.118;9.044;2023-05-07T07:10:56;8.30;;;6.57;;
75689;SDS011;64303;53.118;9.044;2023-05-07T07:13:22;9.20;;;7.20;;
75689;SDS011;64303;53.118;9.044;2023-05-07T07:15:49;6.68;;;5.65;;
75689;SDS011;64303;53.118;9.044;2023-05-07T07:20:47;6.45;;;5.10;;
75689;SDS011;64303;53.118;9.044;2023-05-07T07:23:14;7.88;;;5.80;;
75689;SDS011;64303;53.118;9.044;2023-05-07T07:25:41;9.30;;;6.95;;
75689;SDS011;64303;53.118;9.044;2023-05-07T07:28:08;8.52;;;6.55;;
75689;SDS011;64303;53.118;9.044;2023-05-07T07:30:37;8.13;;;5.20;;
75689;SDS011;64303;53.118;9.044;2023-05-07T07:33:04;7.63;;;6.30;;
75689;SDS011;64303;53.118;9.044;2023-05-07T07:35:34;7.97;;;6.65;;
75689;SDS011;64303;53.118;9.044;2023-05-07T07:38:04;8.05;;;6.35;;
75689;SDS011;64303;53.118;9.044;2023-05-07T07:40:31;7.28;;;5.75;;
75689;SDS011;64303;53.118;9.044;2023-05-07T07:42:58;8.68;;;6.03;;
75689;SDS011;64303;53.118;9.044;2023-05-07T07:45:26;7.80;;;6.97;;
75689;SDS011;64303;53.118;9.044;2023-05-07T07:47:53;8.25;;;6.25;;
75689;SDS011;64303;53.118;9.044;2023-05-07T07:50:20;8.10;;;7.15;;
75689;SDS011;64303;53.118;9.044;2023-05-07T07:52:47;8.63;;;7.72;;
75689;SDS011;64303;53.118;9.044;2023-05-07T07:55:19;10.70;;;9.70;;
75689;SDS011;64303;53.118;9.044;2023-05-07T07:57:49;9.43;;;7.95;;
75689;SDS011;64303;53.118;9.044;2023-05-07T08:00:17;8.40;;;7.40;;
75689;SDS011;64303;53.118;9.044;2023-05-07T08:02:46;8.63;;;6.07;;
75689;SDS011;64303;53.118;9.044;2023-05-07T08:05:20;7.47;;;5.93;;
75689;SDS011;64303;53.118;9.044;2023-05-07T08:07:48;10.68;;;9.85;;
75689;SDS011;64303;53.118;9.044;2023-05-07T08:10:19;7.88;;;5.85;;
75689;SDS011;64303;53.118;9.044;2023-05-07T08:12:48;9.27;;;8.27;;
75689;SDS011;64303;53.118;9.044;2023-05-07T08:15:15;7.28;;;5.88;;
75689;SDS011;64303;53.118;9.044;2023-05-07T08:17:43;7.90;;;7.10;;
75689;SDS011;64303;53.118;9.044;2023-05-07T08:20:10;8.63;;;7.38;;
75689;SDS011;64303;53.118;9.044;2023-05-07T08:22:37;8.30;;;6.47;;
75689;SDS011;64303;53.118;9.044;2023-05-07T08:25:05;8.52;;;6.18;;
75689;SDS011;64303;53.118;9.044;2023-05-07T08:27:33;7.65;;;6.60;;
75689;SDS011;64303;53.118;9.044;2023-05-07T08:30:00;9.25;;;8.35;;
75689;SDS011;64303;53.118;9.044;2023-05-07T08:32:27;7.43;;;6.63;;
75689;SDS011;64303;53.118;9.044;2023-05-07T08:34:54;8.02;;;7.22;;
75689;SDS011;64303;53.118;9.044;2023-05-07T08:37:21;9.70;;;8.80;;
75689;SDS011;64303;53.118;9.044;2023-05-07T08:39:48;7.97;;;7.05;;
75689;SDS011;64303;53.118;9.044;2023-05-07T08:42:19;8.30;;;7.47;;
75689;SDS011;64303;53.118;9.044;2023-05-07T08:44:48;8.55;;;7.57;;
75689;SDS011;64303;53.118;9.044;2023-05-07T08:47:19;8.10;;;7.00;;
75689;SDS011;64303;53.118;9.044;2023-05-07T08:49:46;8.77;;;7.88;;
75689;SDS011;64303;53.118;9.044;2023-05-07T08:52:13;8.43;;;6.72;;
75689;SDS011;64303;53.118;9.044;2023-05-07T08:54:40;7.95;;;6.60;;
75689;SDS011;64303;53.118;9.044;2023-05-07T08:57:09;12.57;;;11.57;;
75689;SDS011;64303;53.118;9.044;2023-05-07T08:59:35;8.45;;;6.90;;
75689;SDS011;64303;53.118;9.044;2023-05-07T09:02:04;10.88;;;7.88;;
75689;SDS011;64303;53.118;9.044;2023-05-07T09:04:32;7.20;;;5.25;;
75689;SDS011;64303;53.118;9.044;2023-05-07T09:07:01;8.73;;;6.57;;
75689;SDS011;64303;53.118;9.044;2023-05-07T09:09:32;6.43;;;5.38;;
75689;SDS011;64303;53.118;9.044;2023-05-07T09:11:59;10.05;;;9.02;;
75689;SDS011;64303;53.118;9.044;2023-05-07T09:14:30;8.38;;;6.43;;
75689;SDS011;64303;53.118;9.044;2023-05-07T09:16:57;9.57;;;7.70;;
75689;SDS011;64303;53.118;9.044;2023-05-07T09:19:26;9.15;;;6.90;;
75689;SDS011;64303;53.118;9.044;2023-05-07T09:21:58;9.77;;;8.88;;
75689;SDS011;64303;53.118;9.044;2023-05-07T09:24:26;9.07;;;6.63;;
75689;SDS011;64303;53.118;9.044;2023-05-07T09:26:54;8.55;;;6.07;;
75689;SDS011;64303;53.118;9.044;2023-05-07T09:29:21;8.15;;;6.20;;
75689;SDS011;64303;53.118;9.044;2023-05-07T09:31:48;8.05;;;7.25;;
75689;SDS011;64303;53.118;9.044;2023-05-07T09:34:16;8.80;;;7.90;;
75689;SDS011;64303;53.118;9.044;2023-05-07T09:36:46;8.10;;;7.00;;
75689;SDS011;64303;53.118;9.044;2023-05-07T09:39:13;8.02;;;6.70;;
75689;SDS011;64303;53.118;9.044;2023-05-07T09:41:43;8.60;;;6.72;;
75689;SDS011;64303;53.118;9.044;2023-05-07T09:44:17;9.30;;;7.07;;
75689;SDS011;64303;53.118;9.044;2023-05-07T09:46:50;9.35;;;8.27;;
75689;SDS011;64303;53.118;9.044;2023-05-07T09:49:25;10.50;;;8.02;;
75689;SDS011;64303;53.118;9.044;2023-05-07T09:52:03;7.50;;;6.57;;
75689;SDS011;64303;53.118;9.044;2023-05-07T09:54:34;10.20;;;9.20;;
75689;SDS011;64303;53.118;9.044;2023-05-07T09:57:03;9.63;;;8.73;;
75689;SDS011;64303;53.118;9.044;2023-05-07T09:59:32;7.10;;;5.28;;
75689;SDS011;64303;53.118;9.044;2023-05-07T10:02:04;8.07;;;6.38;;
75689;SDS011;64303;53.118;9.044;2023-05-07T10:04:37;7.65;;;6.28;;
75689;SDS011;64303;53.118;9.044;2023-05-07T10:07:05;9.77;;;8.75;;
75689;SDS011;64303;53.118;9.044;2023-05-07T10:09:33;8.60;;;7.47;;
75689;SDS011;64303;53.118;9.044;2023-05-07T10:12:04;9.18;;;7.43;;
75689;SDS011;64303;53.118;9.044;2023-05-07T10:14:32;8.25;;;7.32;;
75689;SDS011;64303;53.118;9.044;2023-05-07T10:17:00;8.45;;;7.55;;
75689;SDS011;64303;53.118;9.044;2023-05-07T10:19:29;8.02;;;6.55;;
75689;SDS011;64303;53.118;9.044;2023-05-07T10:24:29;8.48;;;6.93;;
75689;SDS011;64303;53.118;9.044;2023-05-07T10:27:01;9.52;;;6.75;;
75689;SDS011;64303;53.118;9.044;2023-05-07T10:29:33;9.15;;;6.85;;
75689;SDS011;64303;53.118;9.044;2023-05-07T10:32:08;6.82;;;6.10;;
75689;SDS011;64303;53.118;9.044;2023-05-07T10:34:54;8.68;;;7.80;;
75689;SDS011;64303;53.118;9.044;2023-05-07T10:37:23;8.60;;;6.45;;
75689;SDS011;64303;53.118;9.044;2023-05-07T10:39:52;7.40;;;5.95;;
75689;SDS011;64303;53.118;9.044;2023-05-07T10:42:19;7.95;;;6.47;;
75689;SDS011;64303;53.118;9.044;2023-05-07T10:44:50;9.00;;;7.95;;
75689;SDS011;64303;53.118;9.044;2023-05-07T10:47:23;9.27;;;6.63;;
75689;SDS011;64303;53.118;9.044;2023-05-07T10:53:20;7.22;;;4.47;;
75689;SDS011;64303;53.118;9.044;2023-05-07T11:02:19;7.65;;;6.80;;
75689;SDS011;64303;53.118;9.044;2023-05-07T11:07:38;9.20;;;6.80;;
75689;SDS011;64303;53.118;9.044;2023-05-07T11:10:11;8.95;;;6.80;;
75689;SDS011;64303;53.118;9.044;2023-05-07T11:13:01;8.25;;;7.22;;
75689;SDS011;64303;53.118;9.044;2023-05-07T11:15:39;7.70;;;5.85;;
75689;SDS011;64303;53.118;9.044;2023-05-07T11:18:17;10.80;;;9.80;;
75689;SDS011;64303;53.118;9.044;2023-05-07T11:20:53;8.25;;;7.45;;
75689;SDS011;64303;53.118;9.044;2023-05-07T11:23:56;7.10;;;4.65;;
75689;SDS011;64303;53.118;9.044;2023-05-07T11:26:47;7.85;;;6.50;;
75689;SDS011;64303;53.118;9.044;2023-05-07T11:29:17;7.03;;;6.28;;
75689;SDS011;64303;53.118;9.044;2023-05-07T11:31:48;7.60;;;5.80;;
75689;SDS011;64303;53.118;9.044;2023-05-07T11:34:20;7.35;;;5.47;;
75689;SDS011;64303;53.118;9.044;2023-05-07T11:36:47;8.05;;;6.25;;
75689;SDS011;64303;53.118;9.044;2023-05-07T11:39:26;8.70;;;6.78;;
75689;SDS011;64303;53.118;9.044;2023-05-07T11:41:54;8.40;;;7.30;;
75689;SDS011;64303;53.118;9.044;2023-05-07T11:44:22;7.47;;;5.78;;
75689;SDS011;64303;53.118;9.044;2023-05-07T11:46:49;8.50;;;6.20;;
75689;SDS011;64303;53.118;9.044;2023-05-07T11:49:17;9.32;;;8.43;;
75689;SDS011;64303;53.118;9.044;2023-05-07T11:51:44;8.15;;;6.63;;
75689;SDS011;64303;53.118;9.044;2023-05-07T11:54:15;6.60;;;5.75;;
75689;SDS011;64303;53.118;9.044;2023-05-07T11:56:43;9.85;;;8.95;;
75689;SDS011;64303;53.118;9.044;2023-05-07T11:59:16;9.73;;;5.88;;
75689;SDS011;64303;53.118;9.044;2023-05-07T12:01:46;7.22;;;6.50;;
75689;SDS011;64303;53.118;9.044;2023-05-07T12:04:18;6.55;;;4.80;;
75689;SDS011;64303;53.118;9.044;2023-05-07T12:06:47;6.95;;;5.47;;
75689;SDS011;64303;53.118;9.044;2023-05-07T12:09:17;6.00;;;4.68;;
75689;SDS011;64303;53.118;9.044;2023-05-07T12:11:45;7.90;;;5.63;;
75689;SDS011;64303;53.118;9.044;2023-05-07T12:14:13;8.35;;;7.05;;
75689;SDS011;64303;53.118;9.044;2023-05-07T12:16:42;7.90;;;5.95;;
75689;SDS011;64303;53.118;9.044;2023-05-07T12:19:13;7.70;;;6.80;;
75689;SDS011;64303;53.118;9.044;2023-05-07T12:21:40;5.70;;;4.70;;
75689;SDS011;64303;53.118;9.044;2023-05-07T12:24:07;5.72;;;4.82;;
75689;SDS011;64303;53.118;9.044;2023-05-07T12:26:37;5.45;;;3.70;;
75689;SDS011;64303;53.118;9.044;2023-05-07T12:29:04;6.38;;;5.43;;
75689;SDS011;64303;53.118;9.044;2023-05-07T12:31:30;5.40;;;4.32;;
75689;SDS011;64303;53.118;9.044;2023-05-07T12:33:57;6.65;;;3.65;;
75689;SDS011;64303;53.118;9.044;2023-05-07T12:36:25;5.72;;;5.20;;
75689;SDS011;64303;53.118;9.044;2023-05-07T12:38:52;5.65;;;4.93;;
75689;SDS011;64303;53.118;9.044;2023-05-07T12:41:20;4.68;;;3.70;;
75689;SDS011;64303;53.118;9.044;2023-05-07T12:43:51;7.07;;;6.32;;
75689;SDS011;64303;53.118;9.044;2023-05-07T12:46:22;5.50;;;4.57;;
75689;SDS011;64303;53.118;9.044;2023-05-07T12:48:49;6.32;;;5.38;;
75689;SDS011;64303;53.118;9.044;2023-05-07T12:51:15;6.35;;;5.38;;
75689;SDS011;64303;53.118;9.044;2023-05-07T12:53:44;7.00;;;6.30;;
75689;SDS011;64303;53.118;9.044;2023-05-07T12:56:11;5.97;;;5.25;;
75689;SDS011;64303;53.118;9.044;2023-05-07T12:58:42;6.82;;;4.60;;
75689;SDS011;64303;53.118;9.044;2023-05-07T13:01:08;5.63;;;5.05;;
75689;SDS011;64303;53.118;9.044;2023-05-07T13:03:41;6.43;;;5.85;;
75689;SDS011;64303;53.118;9.044;2023-05-07T13:06:14;6.45;;;5.85;;
75689;SDS011;64303;53.118;9.044;2023-05-07T13:08:41;6.13;;;5.53;;
75689;SDS011;64303;53.118;9.044;2023-05-07T13:11:10;5.20;;;4.35;;
75689;SDS011;64303;53.118;9.044;2023-05-07T13:13:39;5.97;;;5.43;;
75689;SDS011;64303;53.118;9.044;2023-05-07T13:16:06;5.60;;;4.85;;
75689;SDS011;64303;53.118;9.044;2023-05-07T13:18:34;5.82;;;5.22;;
75689;SDS011;64303;53.118;9.044;2023-05-07T13:21:01;7.97;;;4.88;;
75689;SDS011;64303;53.118;9.044;2023-05-07T13:23:28;5.30;;;4.80;;
75689;SDS011;64303;53.118;9.044;2023-05-07T13:25:54;5.13;;;3.97;;
75689;SDS011;64303;53.118;9.044;2023-05-07T13:28:23;6.70;;;4.28;;
75689;SDS011;64303;53.118;9.044;2023-05-07T13:30:51;5.22;;;4.60;;
75689;SDS011;64303;53.118;9.044;2023-05-07T13:33:18;5.72;;;5.22;;
75689;SDS011;64303;53.118;9.044;2023-05-07T13:35:45;5.30;;;4.10;;
75689;SDS011;64303;53.118;9.044;2023-05-07T13:38:12;4.88;;;3.70;;
75689;SDS011;64303;53.118;9.044;2023-05-07T13:40:41;6.45;;;4.95;;
75689;SDS011;64303;53.118;9.044;2023-05-07T13:43:07;6.03;;;5.28;;
75689;SDS011;64303;53.118;9.044;2023-05-07T13:45:37;6.00;;;4.68;;
75689;SDS011;64303;53.118;9.044;2023-05-07T13:48:04;5.53;;;4.30;;
75689;SDS011;64303;53.118;9.044;2023-05-07T13:50:30;5.28;;;4.45;;
75689;SDS011;64303;53.118;9.044;2023-05-07T13:52:57;6.85;;;4.72;;
75689;SDS011;64303;53.118;9.044;2023-05-07T13:55:24;6.55;;;5.15;;
75689;SDS011;64303;53.118;9.044;2023-05-07T13:57:55;6.05;;;4.38;;
75689;SDS011;64303;53.118;9.044;2023-05-07T14:00:23;4.93;;;4.20;;
75689;SDS011;64303;53.118;9.044;2023-05-07T14:02:51;5.47;;;4.88;;
75689;SDS011;64303;53.118;9.044;2023-05-07T14:05:18;5.78;;;5.15;;
75689;SDS011;64303;53.118;9.044;2023-05-07T14:07:45;6.15;;;3.83;;
75689;SDS011;64303;53.118;9.044;2023-05-07T14:10:14;5.03;;;3.53;;
75689;SDS011;64303;53.118;9.044;2023-05-07T14:12:41;5.63;;;4.57;;
75689;SDS011;64303;53.118;9.044;2023-05-07T14:15:07;7.13;;;5.35;;
75689;SDS011;64303;53.118;9.044;2023-05-07T14:17:35;6.90;;;5.90;;
75689;SDS011;64303;53.118;9.044;2023-05-07T14:20:03;4.97;;;4.20;;
75689;SDS011;64303;53.118;9.044;2023-05-07T14:22:31;6.55;;;5.57;;
75689;SDS011;64303;53.118;9.044;2023-05-07T14:24:58;4.63;;;3.38;;
75689;SDS011;64303;53.118;9.044;2023-05-07T14:27:25;5.93;;;4.63;;
75689;SDS011;64303;53.118;9.044;2023-05-07T14:29:52;6.80;;;4.32;;
75689;SDS011;64303;53.118;9.044;2023-05-07T14:32:19;5.07;;;4.50;;
75689;SDS011;64303;53.118;9.044;2023-05-07T14:34:46;4.80;;;4.05;;
75689;SDS011;64303;53.118;9.044;2023-05-07T14:37:14;6.40;;;5.75;;
75689;SDS011;64303;53.118;9.044;2023-05-07T14:39:41;7.80;;;5.20;;
75689;SDS011;64303;53.118;9.044;2023-05-07T14:42:08;5.53;;;3.58;;
75689;SDS011;64303;53.118;9.044;2023-05-07T14:44:34;5.10;;;3.75;;
75689;SDS011;64303;53.118;9.044;2023-05-07T14:47:01;5.07;;;4.50;;
75689;SDS011;64303;53.118;9.044;2023-05-07T14:49:27;5.22;;;4.22;;
75689;SDS011;64303;53.118;9.044;2023-05-07T14:51:55;6.50;;;5.13;;
75689;SDS011;64303;53.118;9.044;2023-05-07T14:54:25;6.38;;;5.78;;
75689;SDS011;64303;53.118;9.044;2023-05-07T14:56:52;8.13;;;4.72;;
75689;SDS011;64303;53.118;9.044;2023-05-07T14:59:19;6.13;;;5.55;;
75689;SDS011;64303;53.118;9.044;2023-05-07T15:01:46;4.63;;;4.00;;
75689;SDS011;64303;53.118;9.044;2023-05-07T15:04:13;7.70;;;5.70;;
75689;SDS011;64303;53.118;9.044;2023-05-07T15:06:41;6.35;;;4.82;;
75689;SDS011;64303;53.118;9.044;2023-05-07T15:09:07;5.43;;;4.88;;
75689;SDS011;64303;53.118;9.044;2023-05-07T15:11:35;5.32;;;4.72;;
75689;SDS011;64303;53.118;9.044;2023-05-07T15:14:03;6.18;;;5.57;;
75689;SDS011;64303;53.118;9.044;2023-05-07T15:16:30;6.68;;;4.78;;